Terminal Aerodrome Forecast
Issued by NWS

Home | Current Version | Previous Version | Text Only | Print | Product List | Glossary On
Versions: 1 2 3 4 5 6 7 8 9 10 11 12 13 14 15 16 17 18 19 20 21
198
FTUS46 KLOX 221242 AAB
TAFSBP
TAF AMD
KSBP 221242Z 2213/2312 VRB03KT 2SM BR OVC002
     FM221500 VRB03KT 3SM BR BKN005
     FM221700 30006KT P6SM SKC
     FM222100 31012KT P6SM SKC
     FM230300 31006KT P6SM SKC
     FM230600 VRB03KT 3SM BR BKN005=

USA.gov is the U.S. government's official web portal to all federal, state and local government web resources and services.